Alexandria, Minnesota
Current Conditions -  °F | °C
As of 3:53 PM on Thursday 27 Nov 2014 (Local Time) from KAXN Reporting Station
Few Clouds Few Clouds  
Wind Chill: -22°   Ceiling: Unl
Heat Index: -14°   Visibility: 10mi
Dew Point: -20°   Wind: 9mph
Humidity: 63%   Direction: 180°S
Pressure: 30.32"   Gusts: NA
Location:  45.89°N, 95.37°W
Report Text: KAXN 272153Z AUTO 18008KT 10SM FEW120 M14/M20 A3032 RMK AO2 SLP307 T11441200
Loading
Personal Weather Stations






























Interactive Weather Map New forecast layout! Learn more

10-Day Weather Forecast

Advertisements
Track Severe Weather on mobile